createdAt,value
2018-12-11T00:01:43.049Z,0.50
2018-12-11T00:04:11.411Z,0.50
2018-12-11T00:06:39.722Z,0.50
2018-12-11T00:09:08.071Z,0.40
2018-12-11T00:11:36.392Z,0.40
2018-12-11T00:14:04.841Z,0.40
2018-12-11T00:16:33.163Z,0.40
2018-12-11T00:19:01.513Z,0.40
2018-12-11T00:21:29.842Z,0.30
2018-12-11T00:23:58.211Z,0.30
2018-12-11T00:26:26.555Z,0.30
2018-12-11T00:28:54.914Z,0.30
2018-12-11T00:31:23.235Z,0.30
2018-12-11T00:33:51.590Z,0.30
2018-12-11T00:36:20.017Z,0.30
2018-12-11T00:38:48.367Z,0.30
2018-12-11T00:41:16.686Z,0.30
2018-12-11T00:43:45.059Z,0.30
2018-12-11T00:46:13.404Z,0.20
2018-12-11T00:48:41.734Z,0.20
2018-12-11T00:51:10.081Z,0.30
2018-12-11T00:53:38.408Z,0.30
2018-12-11T00:56:06.770Z,0.30
2018-12-11T00:58:35.106Z,0.30
2018-12-11T01:01:03.465Z,0.20
2018-12-11T01:03:31.790Z,0.20
2018-12-11T01:06:00.155Z,0.20
2018-12-11T01:08:28.486Z,0.20
2018-12-11T01:10:56.854Z,0.20
2018-12-11T01:13:25.183Z,0.20
2018-12-11T01:15:53.539Z,0.20
2018-12-11T01:18:21.865Z,0.10
2018-12-11T01:20:50.236Z,0.20
2018-12-11T01:23:18.556Z,0.10
2018-12-11T01:25:46.906Z,0.20
2018-12-11T01:28:15.242Z,0.10
2018-12-11T01:30:43.596Z,0.10
2018-12-11T01:33:11.926Z,0.10
2018-12-11T01:35:40.287Z,0.10
2018-12-11T01:38:08.734Z,0.10
2018-12-11T01:40:37.094Z,0.10
2018-12-11T01:43:05.530Z,0.20
2018-12-11T01:45:33.883Z,0.20
2018-12-11T01:48:02.208Z,0.20
2018-12-11T01:50:30.662Z,0.20
2018-12-11T01:52:58.979Z,0.20
2018-12-11T01:55:27.322Z,0.20
2018-12-11T01:57:55.666Z,0.20
2018-12-11T02:00:24.577Z,0.20
2018-12-11T02:02:52.944Z,0.20
2018-12-11T02:05:21.311Z,0.20
2018-12-11T02:07:49.661Z,0.20
2018-12-11T02:10:18.039Z,0.20
2018-12-11T02:12:46.387Z,0.20
2018-12-11T02:15:14.758Z,0.30
2018-12-11T02:17:43.103Z,0.20
2018-12-11T02:20:11.486Z,0.20
2018-12-11T02:22:39.825Z,0.30
2018-12-11T02:25:08.203Z,0.20
2018-12-11T02:27:36.529Z,0.30
2018-12-11T02:30:05.620Z,0.30
2018-12-11T02:32:33.948Z,0.30
2018-12-11T02:35:02.330Z,0.30
2018-12-11T02:37:30.643Z,0.30
2018-12-11T02:39:59.188Z,0.40
2018-12-11T02:42:27.520Z,0.40
2018-12-11T02:44:55.869Z,0.40
2018-12-11T02:47:24.202Z,0.40
2018-12-11T02:49:52.559Z,0.40
2018-12-11T02:52:20.878Z,0.40
2018-12-11T02:54:49.226Z,0.40
2018-12-11T02:57:17.549Z,0.40
2018-12-11T02:59:45.907Z,0.40
2018-12-11T03:02:14.327Z,0.40
2018-12-11T03:04:42.678Z,0.40
2018-12-11T03:07:11.010Z,0.40
2018-12-11T03:09:39.362Z,0.40
2018-12-11T03:12:07.733Z,0.40
2018-12-11T03:14:36.091Z,0.40
2018-12-11T03:17:04.637Z,0.40
2018-12-11T03:19:33.031Z,0.40
2018-12-11T03:22:01.343Z,0.40
2018-12-11T03:24:29.696Z,0.40
2018-12-11T03:26:58.014Z,0.40
2018-12-11T03:29:26.349Z,0.40
2018-12-11T03:31:54.751Z,0.40
2018-12-11T03:34:23.090Z,0.50
2018-12-11T03:36:51.446Z,0.40
2018-12-11T03:39:19.767Z,0.40
2018-12-11T03:41:48.145Z,0.50
2018-12-11T03:44:16.479Z,0.50
2018-12-11T03:46:44.889Z,0.50
2018-12-11T03:49:13.252Z,0.50
2018-12-11T03:51:41.634Z,0.50
2018-12-11T03:54:09.953Z,0.50
2018-12-11T03:56:38.427Z,0.50
2018-12-11T03:59:06.759Z,0.50
2018-12-11T04:01:35.115Z,0.50
2018-12-11T04:04:03.539Z,0.50
2018-12-11T04:06:31.910Z,0.60
2018-12-11T04:09:00.226Z,0.60
2018-12-11T04:11:28.589Z,0.60
2018-12-11T04:13:56.998Z,0.60
2018-12-11T04:16:25.449Z,0.60
2018-12-11T04:18:53.801Z,0.60
2018-12-11T04:21:22.186Z,0.60
2018-12-11T04:23:50.502Z,0.60
2018-12-11T04:26:18.866Z,0.60
2018-12-11T04:28:47.190Z,0.60
2018-12-11T04:31:15.554Z,0.50
2018-12-11T04:33:43.886Z,0.50
2018-12-11T04:36:12.254Z,0.50
2018-12-11T04:38:40.593Z,0.50
2018-12-11T04:41:08.992Z,0.50
2018-12-11T04:43:37.324Z,0.50
2018-12-11T04:46:05.671Z,0.50
2018-12-11T04:48:34.038Z,0.50
2018-12-11T04:51:02.389Z,0.40
2018-12-11T04:53:30.814Z,0.50
2018-12-11T04:55:59.173Z,0.40
2018-12-11T04:58:27.565Z,0.40
2018-12-11T05:00:55.910Z,0.50
2018-12-11T05:03:24.238Z,0.50
2018-12-11T05:05:52.606Z,0.50
2018-12-11T05:08:20.939Z,0.50
2018-12-11T05:10:49.306Z,0.50
2018-12-11T05:13:17.624Z,0.50
2018-12-11T05:15:45.999Z,0.50
2018-12-11T05:18:15.050Z,0.50
2018-12-11T05:20:43.399Z,0.40
2018-12-11T05:23:11.718Z,0.40
2018-12-11T05:25:40.119Z,0.40
2018-12-11T05:28:08.481Z,0.40
2018-12-11T05:30:36.845Z,0.40
2018-12-11T05:33:05.176Z,0.40
2018-12-11T05:35:33.525Z,0.40
2018-12-11T05:38:01.853Z,0.40
2018-12-11T05:40:30.211Z,0.40
2018-12-11T05:42:58.514Z,0.40
2018-12-11T05:45:26.858Z,0.40
2018-12-11T05:47:55.170Z,0.40
2018-12-11T05:50:23.550Z,0.40
2018-12-11T05:52:51.930Z,0.50
2018-12-11T05:55:20.282Z,0.50
2018-12-11T05:57:48.584Z,0.50
2018-12-11T06:00:17.046Z,0.50
2018-12-11T06:02:45.374Z,0.50
2018-12-11T06:05:13.839Z,0.50
2018-12-11T06:07:42.142Z,0.50
2018-12-11T06:10:10.710Z,0.50
2018-12-11T06:12:39.070Z,0.60
2018-12-11T06:15:07.617Z,0.60
2018-12-11T06:17:35.951Z,0.60
2018-12-11T06:20:04.674Z,0.70
2018-12-11T06:22:33.021Z,0.60
2018-12-11T06:25:01.447Z,0.60
2018-12-11T06:27:30.002Z,0.80
2018-12-11T06:29:59.221Z,0.80
2018-12-11T06:32:27.608Z,0.80
2018-12-11T06:34:55.926Z,0.80
2018-12-11T06:37:24.313Z,0.80
2018-12-11T06:39:52.645Z,0.80
2018-12-11T06:42:20.997Z,0.70
2018-12-11T06:44:49.322Z,0.80
2018-12-11T06:47:17.677Z,0.70
2018-12-11T06:49:46.010Z,0.70
2018-12-11T06:52:14.358Z,0.70
2018-12-11T06:54:42.687Z,0.60
2018-12-11T06:57:11.046Z,0.60
2018-12-11T06:59:39.374Z,0.60
2018-12-11T07:02:07.730Z,0.60
2018-12-11T07:04:36.074Z,0.60
2018-12-11T07:07:04.428Z,0.60
2018-12-11T07:09:32.770Z,0.60
2018-12-11T07:12:01.122Z,0.60
2018-12-11T07:14:29.430Z,0.60
2018-12-11T07:16:58.079Z,0.80
2018-12-11T07:19:26.408Z,0.90
2018-12-11T07:21:54.875Z,0.90
2018-12-11T07:24:23.207Z,0.90
2018-12-11T07:26:52.574Z,0.80
2018-12-11T07:29:21.077Z,0.80
2018-12-11T07:31:49.479Z,0.80
2018-12-11T07:34:17.834Z,0.80
2018-12-11T07:36:46.153Z,0.80
2018-12-11T07:39:14.525Z,0.80
2018-12-11T07:41:42.849Z,0.80
2018-12-11T07:44:11.209Z,0.80
2018-12-11T07:46:39.541Z,0.80
2018-12-11T07:49:07.902Z,0.80
2018-12-11T07:51:36.263Z,0.90
2018-12-11T07:54:04.698Z,0.90
2018-12-11T07:56:33.060Z,0.90
2018-12-11T07:59:01.511Z,0.90
2018-12-11T08:01:29.871Z,1.00
2018-12-11T08:03:58.191Z,1.00
2018-12-11T08:06:26.546Z,1.00
2018-12-11T08:08:54.878Z,1.00
2018-12-11T08:11:23.218Z,1.00
2018-12-11T08:13:51.531Z,1.00
2018-12-11T08:16:20.181Z,1.00
2018-12-11T08:18:48.500Z,1.10
2018-12-11T08:21:16.878Z,1.10
2018-12-11T08:23:45.193Z,1.10
2018-12-11T08:26:13.530Z,1.10
2018-12-11T08:28:41.837Z,1.00
2018-12-11T08:31:10.189Z,1.10
2018-12-11T08:33:38.502Z,1.10
2018-12-11T08:36:06.818Z,1.10
2018-12-11T08:38:35.175Z,1.10
2018-12-11T08:41:03.500Z,1.10
2018-12-11T08:43:31.845Z,1.10
2018-12-11T08:46:00.146Z,1.10
2018-12-11T08:48:28.493Z,1.10
2018-12-11T08:50:56.809Z,1.10
2018-12-11T08:53:25.153Z,1.20
2018-12-11T08:55:53.474Z,1.20
2018-12-11T08:58:21.911Z,1.20
2018-12-11T09:00:50.350Z,1.20
2018-12-11T09:03:18.723Z,1.20
2018-12-11T09:05:47.035Z,1.20
2018-12-11T09:08:15.675Z,1.20
2018-12-11T09:10:43.994Z,1.20
2018-12-11T09:13:12.341Z,1.20
2018-12-11T09:15:40.655Z,1.20
2018-12-11T09:18:09.002Z,1.30
2018-12-11T09:20:37.330Z,1.30
2018-12-11T09:23:05.662Z,1.30
2018-12-11T09:25:33.982Z,1.40
2018-12-11T09:28:02.323Z,1.40
2018-12-11T09:30:30.634Z,1.40
2018-12-11T09:32:58.979Z,1.50
2018-12-11T09:35:27.294Z,1.50
2018-12-11T09:37:55.625Z,1.60
2018-12-11T09:40:24.569Z,1.60
2018-12-11T09:42:53.110Z,1.60
2018-12-11T09:45:21.467Z,1.60
2018-12-11T09:47:49.818Z,1.70
2018-12-11T09:50:18.147Z,1.70
2018-12-11T09:52:46.489Z,1.70
2018-12-11T09:55:14.943Z,1.70
2018-12-11T09:57:43.294Z,1.80
2018-12-11T10:00:11.752Z,1.80
2018-12-11T10:02:40.110Z,1.80
2018-12-11T10:05:08.544Z,1.80
2018-12-11T10:07:36.882Z,1.90
2018-12-11T10:10:05.542Z,2.00
2018-12-11T10:12:33.897Z,2.00
2018-12-11T10:15:02.219Z,2.00
2018-12-11T10:17:30.590Z,2.10
2018-12-11T10:19:58.943Z,2.10
2018-12-11T10:22:27.270Z,2.10
2018-12-11T10:24:55.604Z,2.10
2018-12-11T10:27:23.922Z,2.10
2018-12-11T10:29:52.278Z,2.20
2018-12-11T10:32:20.597Z,2.20
2018-12-11T10:34:48.943Z,2.30
2018-12-11T10:37:17.247Z,2.40
2018-12-11T10:39:45.578Z,2.50
2018-12-11T10:42:13.895Z,2.60
2018-12-11T10:44:42.755Z,2.70
2018-12-11T10:47:11.063Z,2.70
2018-12-11T10:49:39.401Z,2.70
2018-12-11T10:52:07.713Z,2.70
2018-12-11T10:54:36.122Z,2.70
2018-12-11T10:57:04.478Z,2.70
2018-12-11T10:59:32.857Z,2.70
2018-12-11T11:02:05.396Z,2.70
2018-12-11T11:04:33.847Z,2.70
2018-12-11T11:07:02.153Z,2.70
2018-12-11T11:09:30.507Z,2.80
2018-12-11T11:11:59.050Z,2.80
2018-12-11T11:14:27.400Z,2.80
2018-12-11T11:16:55.719Z,2.80
2018-12-11T11:19:24.154Z,2.80
2018-12-11T11:21:52.625Z,2.90
2018-12-11T11:24:21.086Z,2.90
2018-12-11T11:26:49.403Z,2.80
2018-12-11T11:29:17.751Z,2.80
2018-12-11T11:31:46.065Z,2.80
2018-12-11T11:34:14.410Z,2.80
2018-12-11T11:36:42.714Z,2.80
2018-12-11T11:41:47.742Z,2.70
2018-12-11T11:44:16.078Z,2.80
2018-12-11T11:46:44.387Z,2.80
2018-12-11T11:49:12.722Z,2.80
2018-12-11T11:51:41.048Z,2.80
2018-12-11T11:54:09.392Z,2.90
2018-12-11T11:56:37.693Z,2.80
2018-12-11T11:59:06.031Z,2.90
2018-12-11T12:01:34.342Z,2.90
2018-12-11T12:04:02.694Z,2.90
2018-12-11T12:06:30.991Z,2.80
2018-12-11T12:08:59.517Z,2.90
2018-12-11T12:11:27.994Z,2.90
2018-12-11T12:13:56.351Z,2.90
2018-12-11T12:16:24.783Z,3.00
2018-12-11T12:18:53.234Z,2.90
2018-12-11T12:21:21.559Z,3.00
2018-12-11T12:23:49.922Z,2.90
2018-12-11T12:26:18.301Z,2.90
2018-12-11T12:28:46.654Z,2.90
2018-12-11T12:31:15.378Z,2.90
2018-12-11T12:33:43.750Z,2.90
2018-12-11T12:36:12.099Z,2.90
2018-12-11T12:38:40.446Z,2.80
2018-12-11T12:41:08.759Z,2.90
2018-12-11T12:43:37.137Z,2.90
2018-12-11T12:46:05.455Z,2.90
2018-12-11T12:48:33.814Z,2.90
2018-12-11T12:51:02.250Z,2.90
2018-12-11T12:53:30.614Z,2.90
2018-12-11T12:55:58.938Z,2.90
2018-12-11T12:58:27.267Z,2.90
2018-12-11T13:00:55.821Z,2.90
2018-12-11T13:03:24.350Z,2.90
2018-12-11T13:05:52.722Z,2.90
2018-12-11T13:08:21.038Z,2.90
2018-12-11T13:10:49.401Z,2.90
2018-12-11T13:13:17.830Z,2.90
2018-12-11T13:15:46.217Z,2.90
2018-12-11T13:18:14.543Z,2.90
2018-12-11T13:20:42.900Z,2.90
2018-12-11T13:23:11.227Z,3.00
2018-12-11T13:25:39.579Z,2.90
2018-12-11T13:28:07.901Z,2.90
2018-12-11T13:30:36.253Z,2.90
2018-12-11T13:33:04.566Z,2.90
2018-12-11T13:35:32.939Z,3.00
2018-12-11T13:38:01.255Z,2.90
2018-12-11T13:40:29.603Z,2.90
2018-12-11T13:42:58.015Z,3.00
2018-12-11T13:45:26.353Z,2.90
2018-12-11T13:47:54.662Z,2.90
2018-12-11T13:50:23.124Z,2.90
2018-12-11T13:52:51.533Z,2.90
2018-12-11T13:55:19.881Z,2.90
2018-12-11T13:57:48.293Z,2.90
2018-12-11T14:00:16.642Z,2.90
2018-12-11T14:02:44.953Z,2.90
2018-12-11T14:05:13.498Z,2.80
2018-12-11T14:07:41.826Z,2.80
2018-12-11T14:10:10.167Z,2.80
2018-12-11T14:12:38.491Z,2.80
2018-12-11T14:15:08.506Z,2.80
2018-12-11T14:17:36.823Z,2.80
2018-12-11T14:20:06.909Z,2.80
2018-12-11T14:22:35.333Z,2.70
2018-12-11T14:25:03.885Z,2.70
2018-12-11T14:27:32.207Z,2.70
2018-12-11T14:30:00.670Z,2.60
2018-12-11T14:32:29.218Z,2.60
2018-12-11T14:34:57.583Z,2.60
2018-12-11T14:37:25.902Z,2.60
2018-12-11T14:39:54.255Z,2.50
2018-12-11T14:42:22.578Z,2.50
2018-12-11T14:44:50.925Z,2.50
2018-12-11T14:47:19.346Z,2.50
2018-12-11T14:49:47.718Z,2.50
2018-12-11T14:52:16.126Z,2.60
2018-12-11T14:54:44.451Z,2.80
2018-12-11T14:57:12.798Z,2.90
2018-12-11T14:59:41.177Z,2.80
2018-12-11T15:02:09.600Z,2.80
2018-12-11T15:04:37.949Z,2.70
2018-12-11T15:07:06.305Z,2.70
2018-12-11T15:09:40.136Z,2.60
2018-12-11T15:12:08.491Z,2.60
2018-12-11T15:14:36.838Z,2.50
2018-12-11T15:17:05.609Z,2.50
2018-12-11T15:19:33.938Z,2.40
2018-12-11T15:22:02.296Z,2.30
2018-12-11T15:24:30.610Z,2.30
2018-12-11T15:26:58.961Z,2.30
2018-12-11T15:29:27.360Z,2.30
2018-12-11T15:31:55.803Z,2.20
2018-12-11T15:34:24.122Z,2.20
2018-12-11T15:36:52.474Z,2.20
2018-12-11T15:39:20.798Z,2.20
2018-12-11T15:41:49.137Z,2.20
2018-12-11T15:44:17.460Z,2.20
2018-12-11T15:46:45.943Z,2.20
2018-12-11T15:49:14.299Z,2.20
2018-12-11T15:51:42.727Z,2.10
2018-12-11T15:54:11.042Z,2.10
2018-12-11T15:56:39.490Z,2.10
2018-12-11T15:59:07.817Z,2.10
2018-12-11T16:01:36.275Z,2.10
2018-12-11T16:04:04.626Z,2.20
2018-12-11T16:06:32.986Z,2.20
2018-12-11T16:09:01.310Z,2.10
2018-12-11T16:11:29.681Z,2.10
2018-12-11T16:13:58.002Z,2.10
2018-12-11T16:16:27.230Z,2.10
2018-12-11T16:18:56.306Z,2.00
2018-12-11T16:21:24.695Z,2.00
2018-12-11T16:23:53.015Z,2.00
2018-12-11T16:26:21.420Z,2.00
2018-12-11T16:28:49.731Z,1.90
2018-12-11T16:31:18.166Z,1.90
2018-12-11T16:33:46.485Z,1.90
2018-12-11T16:36:14.945Z,1.80
2018-12-11T16:38:43.262Z,1.80
2018-12-11T16:41:11.654Z,1.70
2018-12-11T16:43:40.006Z,1.60
2018-12-11T16:46:08.521Z,1.60
2018-12-11T16:48:36.866Z,1.60
2018-12-11T16:51:05.275Z,1.50
2018-12-11T16:53:33.629Z,1.50
2018-12-11T16:56:02.038Z,1.50
2018-12-11T16:58:30.386Z,1.50
2018-12-11T17:00:58.766Z,1.40
2018-12-11T17:03:27.111Z,1.40
2018-12-11T17:05:55.502Z,1.40
2018-12-11T17:08:24.038Z,1.40
2018-12-11T17:10:52.457Z,1.40
2018-12-11T17:13:20.926Z,1.40
2018-12-11T17:15:49.634Z,1.40
2018-12-11T17:18:18.004Z,1.30
2018-12-11T17:20:46.318Z,1.30
2018-12-11T17:23:14.678Z,1.30
2018-12-11T17:25:42.997Z,1.30
2018-12-11T17:28:11.482Z,1.30
2018-12-11T17:30:39.805Z,1.30
2018-12-11T17:33:08.237Z,1.30
2018-12-11T17:35:36.558Z,1.30
2018-12-11T17:38:04.942Z,1.30
2018-12-11T17:40:33.262Z,1.30
2018-12-11T17:43:01.642Z,1.30
2018-12-11T17:45:30.075Z,1.30
2018-12-11T17:47:58.454Z,1.30
2018-12-11T17:50:27.010Z,1.20
2018-12-11T17:52:55.389Z,1.20
2018-12-11T17:55:23.701Z,1.20
2018-12-11T17:57:52.078Z,1.20
2018-12-11T18:00:20.402Z,1.20
2018-12-11T18:02:49.187Z,1.20
2018-12-11T18:05:17.513Z,1.20
2018-12-11T18:07:45.923Z,1.20
2018-12-11T18:10:14.246Z,1.20
2018-12-11T18:12:42.622Z,1.20
2018-12-11T18:15:10.947Z,1.20
2018-12-11T18:17:44.634Z,1.20
2018-12-11T18:20:13.070Z,1.20
2018-12-11T18:22:41.468Z,1.20
2018-12-11T18:25:09.798Z,1.20
2018-12-11T18:27:38.210Z,1.20
2018-12-11T18:30:07.777Z,1.20
2018-12-11T18:32:36.276Z,1.20
2018-12-11T18:35:05.968Z,1.20
2018-12-11T18:37:34.414Z,1.20
2018-12-11T18:40:02.874Z,1.10
2018-12-11T18:42:31.286Z,1.10
2018-12-11T18:45:03.178Z,1.10
2018-12-11T18:47:30.054Z,1.10
2018-12-11T18:49:58.375Z,1.10
2018-12-11T18:52:26.777Z,1.10
2018-12-11T18:54:55.238Z,1.00
2018-12-11T18:57:23.658Z,1.10
2018-12-11T18:59:51.983Z,1.10
2018-12-11T19:02:20.554Z,1.10
2018-12-11T19:04:48.880Z,1.10
2018-12-11T19:07:17.299Z,1.10
2018-12-11T19:09:45.619Z,1.10
2018-12-11T19:12:14.042Z,1.10
2018-12-11T19:14:42.470Z,1.10
2018-12-11T19:17:10.787Z,1.10
2018-12-11T19:19:39.204Z,1.10
2018-12-11T19:22:07.526Z,1.10
2018-12-11T19:25:09.329Z,1.10
2018-12-11T19:27:37.725Z,1.10
2018-12-11T19:30:06.562Z,1.10
2018-12-11T19:32:35.022Z,1.10
2018-12-11T19:35:04.409Z,1.10
2018-12-11T19:37:33.119Z,1.10
2018-12-11T19:40:02.241Z,1.00
2018-12-11T19:42:30.861Z,1.10
2018-12-11T19:44:59.181Z,1.10
2018-12-11T19:47:27.596Z,1.10
2018-12-11T19:49:55.915Z,1.00
2018-12-11T19:52:24.326Z,1.00
2018-12-11T19:54:52.762Z,1.00
2018-12-11T19:57:21.082Z,1.00
2018-12-11T19:59:49.495Z,1.00
2018-12-11T20:02:17.820Z,1.00
2018-12-11T20:04:46.254Z,1.00
2018-12-11T20:07:14.578Z,1.00
2018-12-11T20:10:46.015Z,1.00
2018-12-11T20:13:14.575Z,0.90
2018-12-11T20:15:42.927Z,0.90
2018-12-11T20:18:13.052Z,0.90
2018-12-11T20:20:41.601Z,0.80
2018-12-11T20:23:10.042Z,0.80
2018-12-11T20:25:40.458Z,0.80
2018-12-11T20:28:08.878Z,0.80
2018-12-11T20:30:37.290Z,0.80
2018-12-11T20:33:05.915Z,0.80
2018-12-11T20:35:34.518Z,0.80
2018-12-11T20:38:03.031Z,0.80
2018-12-11T20:40:31.345Z,0.80
2018-12-11T20:43:00.318Z,0.80
2018-12-11T20:45:28.634Z,0.80
2018-12-11T20:47:56.948Z,0.80
2018-12-11T20:50:25.390Z,0.80
2018-12-11T20:52:53.706Z,0.80
2018-12-11T20:55:22.129Z,0.70
2018-12-11T20:57:50.482Z,0.70
2018-12-11T21:00:19.029Z,0.70
2018-12-11T21:02:47.441Z,0.70
2018-12-11T21:05:15.879Z,0.70
2018-12-11T21:07:44.295Z,0.70
2018-12-11T21:10:12.805Z,0.60
2018-12-11T21:12:41.299Z,0.60
2018-12-11T21:15:09.995Z,0.60
2018-12-11T21:17:38.430Z,0.60
2018-12-11T21:20:07.918Z,0.60
2018-12-11T21:22:36.245Z,0.60
2018-12-11T21:25:06.118Z,0.60
2018-12-11T21:27:34.438Z,0.50
2018-12-11T21:30:02.982Z,0.50
2018-12-11T21:32:31.303Z,0.50
2018-12-11T21:34:59.754Z,0.50
2018-12-11T21:37:28.091Z,0.40
2018-12-11T21:39:56.480Z,0.40
2018-12-11T21:42:25.147Z,0.40
2018-12-11T21:44:53.533Z,0.30
2018-12-11T21:47:21.859Z,0.30
2018-12-11T21:49:50.279Z,0.30
2018-12-11T21:52:18.610Z,0.20
2018-12-11T21:54:47.012Z,0.20
2018-12-11T21:57:15.339Z,0.20
2018-12-11T21:59:43.690Z,0.10
2018-12-11T22:02:12.059Z,0.10
2018-12-11T22:04:40.537Z,0.10
2018-12-11T22:07:08.958Z,0.00
2018-12-11T22:09:37.334Z,0.00
2018-12-11T22:12:06.165Z,-0.10
2018-12-11T22:14:34.541Z,-0.10
2018-12-11T22:17:03.007Z,-0.20
2018-12-11T22:19:31.357Z,-0.20
2018-12-11T22:21:59.697Z,-0.20
2018-12-11T22:24:28.045Z,-0.30
2018-12-11T22:26:56.363Z,-0.30
2018-12-11T22:29:24.723Z,-0.30
2018-12-11T22:31:53.030Z,-0.40
2018-12-11T22:34:21.394Z,-0.40
2018-12-11T22:36:49.789Z,-0.40
2018-12-11T22:39:18.166Z,-0.50
2018-12-11T22:41:46.589Z,-0.50
2018-12-11T22:44:14.924Z,-0.50
2018-12-11T22:46:43.287Z,-0.60
2018-12-11T22:49:11.619Z,-0.60
2018-12-11T22:51:40.480Z,-0.60
2018-12-11T22:54:09.206Z,-0.60
2018-12-11T22:56:37.626Z,-0.60
2018-12-11T22:59:05.946Z,-0.60
2018-12-11T23:01:34.433Z,-0.60
2018-12-11T23:04:02.858Z,-0.60
2018-12-11T23:06:31.206Z,-0.60
2018-12-11T23:08:59.534Z,-0.60
2018-12-11T23:11:27.989Z,-0.60
2018-12-11T23:13:56.318Z,-0.70
2018-12-11T23:16:24.675Z,-0.70
2018-12-11T23:18:53.013Z,-0.70
2018-12-11T23:21:21.391Z,-0.70
2018-12-11T23:23:49.716Z,-0.70
2018-12-11T23:26:18.063Z,-0.70
2018-12-11T23:28:46.442Z,-0.70
2018-12-11T23:31:14.798Z,-0.70
2018-12-11T23:33:43.112Z,-0.70
2018-12-11T23:36:11.462Z,-0.70
2018-12-11T23:38:39.790Z,-0.70
2018-12-11T23:41:08.134Z,-0.70
2018-12-11T23:43:36.450Z,-0.70
2018-12-11T23:46:04.813Z,-0.80
2018-12-11T23:48:33.158Z,-0.80
2018-12-11T23:51:01.522Z,-0.80
2018-12-11T23:53:29.862Z,-0.80
2018-12-11T23:55:58.218Z,-0.80
2018-12-11T23:58:26.541Z,-0.80
